createdAt,value
2023-02-26T00:01:22.976Z,2.40
2023-02-26T00:03:51.708Z,2.40
2023-02-26T00:06:20.101Z,2.40
2023-02-26T00:08:48.141Z,2.30
2023-02-26T00:11:16.401Z,2.30
2023-02-26T00:13:46.720Z,2.40
2023-02-26T00:16:26.748Z,2.30
2023-02-26T00:18:55.355Z,2.30
2023-02-26T00:21:25.399Z,2.30
2023-02-26T00:23:53.735Z,2.30
2023-02-26T00:26:22.707Z,2.30
2023-02-26T00:28:51.335Z,2.30
2023-02-26T00:31:24.666Z,2.20
2023-02-26T00:33:55.509Z,2.20
2023-02-26T00:36:26.286Z,2.20
2023-02-26T00:39:04.357Z,2.20
2023-02-26T00:41:32.773Z,2.20
2023-02-26T00:44:01.130Z,2.20
2023-02-26T00:46:39.420Z,2.20
2023-02-26T00:49:19.737Z,2.20
2023-02-26T00:51:52.534Z,2.20
2023-02-26T00:54:22.737Z,2.20
2023-02-26T00:56:51.889Z,2.20
2023-02-26T00:59:20.426Z,2.20
2023-02-26T01:01:49.051Z,2.20
2023-02-26T01:04:21.001Z,2.20
2023-02-26T01:06:51.395Z,2.20
2023-02-26T01:09:25.770Z,2.20
2023-02-26T01:11:54.918Z,2.20
2023-02-26T01:14:24.117Z,2.20
2023-02-26T01:16:58.613Z,2.20
2023-02-26T01:19:34.361Z,2.30
2023-02-26T01:22:08.962Z,2.30
2023-02-26T01:24:38.449Z,2.20
2023-02-26T01:27:06.966Z,2.20
2023-02-26T01:29:35.219Z,2.20
2023-02-26T01:32:09.216Z,2.20
2023-02-26T01:34:47.477Z,2.20
2023-02-26T01:37:23.799Z,2.20
2023-02-26T01:40:11.555Z,2.20
2023-02-26T01:42:41.977Z,2.20
2023-02-26T01:45:14.334Z,2.20
2023-02-26T01:47:50.487Z,2.20
2023-02-26T01:50:22.483Z,2.20
2023-02-26T01:53:24.033Z,2.20
2023-02-26T01:55:57.111Z,2.20
2023-02-26T01:58:27.088Z,2.20
2023-02-26T02:00:54.974Z,2.20
2023-02-26T02:03:25.190Z,2.20
2023-02-26T02:05:58.572Z,2.20
2023-02-26T02:08:26.805Z,2.20
2023-02-26T02:10:55.469Z,2.10
2023-02-26T02:13:52.814Z,2.10
2023-02-26T02:16:29.777Z,2.10
2023-02-26T02:19:07.187Z,2.10
2023-02-26T02:21:51.566Z,2.20
2023-02-26T02:24:28.154Z,2.10
2023-02-26T02:27:09.440Z,2.10
2023-02-26T02:30:14.056Z,2.10
2023-02-26T02:32:47.943Z,2.10
2023-02-26T02:35:21.388Z,2.00
2023-02-26T02:37:55.391Z,2.00
2023-02-26T02:40:26.632Z,2.00
2023-02-26T02:42:59.750Z,2.00
2023-02-26T02:45:32.242Z,2.00
2023-02-26T02:48:07.554Z,2.00
2023-02-26T02:50:39.671Z,1.90
2023-02-26T02:53:12.130Z,1.90
2023-02-26T02:55:43.926Z,1.90
2023-02-26T02:58:16.029Z,1.90
2023-02-26T03:00:52.319Z,1.90
2023-02-26T03:03:27.603Z,1.90
2023-02-26T03:05:55.565Z,1.80
2023-02-26T03:08:27.752Z,1.80
2023-02-26T03:10:55.894Z,1.80
2023-02-26T03:13:26.195Z,1.80
2023-02-26T03:16:04.864Z,1.80
2023-02-26T03:18:42.838Z,1.70
2023-02-26T03:21:18.903Z,1.70
2023-02-26T03:23:53.233Z,1.70
2023-02-26T03:26:30.282Z,1.70
2023-02-26T03:29:05.763Z,1.70
2023-02-26T03:31:39.168Z,1.70
2023-02-26T03:34:14.481Z,1.70
2023-02-26T03:36:45.895Z,1.60
2023-02-26T03:39:21.027Z,1.60
2023-02-26T03:41:59.138Z,1.60
2023-02-26T03:44:31.060Z,1.60
2023-02-26T03:47:04.000Z,1.60
2023-02-26T03:49:36.083Z,1.60
2023-02-26T03:52:05.898Z,1.60
2023-02-26T03:54:38.320Z,1.60
2023-02-26T03:57:06.538Z,1.50
2023-02-26T03:59:35.810Z,1.50
2023-02-26T04:02:06.611Z,1.50
2023-02-26T04:04:47.673Z,1.50
2023-02-26T04:07:17.849Z,1.50
2023-02-26T04:09:49.633Z,1.50
2023-02-26T04:12:21.641Z,1.40
2023-02-26T04:14:49.597Z,1.40
2023-02-26T04:17:18.762Z,1.40
2023-02-26T04:19:48.144Z,1.40
2023-02-26T04:22:16.350Z,1.40
2023-02-26T04:24:44.562Z,1.40
2023-02-26T04:27:12.611Z,1.40
2023-02-26T04:29:40.614Z,1.40
2023-02-26T04:32:08.690Z,1.40
2023-02-26T04:34:36.785Z,1.30
2023-02-26T04:37:06.170Z,1.30
2023-02-26T04:39:34.203Z,1.30
2023-02-26T04:42:03.012Z,1.30
2023-02-26T04:44:30.986Z,1.30
2023-02-26T04:46:59.258Z,1.20
2023-02-26T04:49:27.245Z,1.20
2023-02-26T04:51:55.369Z,1.20
2023-02-26T04:54:24.698Z,1.20
2023-02-26T04:56:52.683Z,1.20
2023-02-26T04:59:20.717Z,1.20
2023-02-26T05:01:48.902Z,1.20
2023-02-26T05:04:16.893Z,1.20
2023-02-26T05:06:44.952Z,1.10
2023-02-26T05:09:12.923Z,1.20
2023-02-26T05:11:42.298Z,1.10
2023-02-26T05:14:10.232Z,1.10
2023-02-26T05:16:38.503Z,1.10
2023-02-26T05:19:06.506Z,1.10
2023-02-26T05:21:34.501Z,1.10
2023-02-26T05:24:02.497Z,1.00
2023-02-26T05:26:30.742Z,1.00
2023-02-26T05:29:00.179Z,1.00
2023-02-26T05:31:28.583Z,1.00
2023-02-26T05:33:56.722Z,1.00
2023-02-26T05:36:24.956Z,1.00
2023-02-26T05:38:54.152Z,0.90
2023-02-26T05:41:22.149Z,0.90
2023-02-26T05:43:50.111Z,0.90
2023-02-26T05:46:19.500Z,0.90
2023-02-26T05:48:47.424Z,0.90
2023-02-26T05:51:15.487Z,0.90
2023-02-26T05:53:43.456Z,0.90
2023-02-26T05:56:11.457Z,0.80
2023-02-26T05:58:39.498Z,0.80
2023-02-26T06:01:07.497Z,0.80
2023-02-26T06:03:37.260Z,0.80
2023-02-26T06:06:05.778Z,0.80
2023-02-26T06:08:33.771Z,0.80
2023-02-26T06:11:01.774Z,0.80
2023-02-26T06:13:29.755Z,0.70
2023-02-26T06:15:57.826Z,0.70
2023-02-26T06:18:25.937Z,0.70
2023-02-26T06:20:55.266Z,0.70
2023-02-26T06:23:23.229Z,0.70
2023-02-26T06:25:52.415Z,0.60
2023-02-26T06:28:20.560Z,0.60
2023-02-26T06:30:48.669Z,0.60
2023-02-26T06:33:16.733Z,0.60
2023-02-26T06:35:44.693Z,0.60
2023-02-26T06:38:14.036Z,0.60
2023-02-26T06:40:41.999Z,0.60
2023-02-26T06:43:10.089Z,0.60
2023-02-26T06:45:38.328Z,0.60
2023-02-26T06:48:06.555Z,0.60
2023-02-26T06:50:34.534Z,0.60
2023-02-26T06:53:02.516Z,0.60
2023-02-26T06:55:31.877Z,0.60
2023-02-26T06:57:59.819Z,0.60
2023-02-26T07:00:27.991Z,0.60
2023-02-26T07:02:56.049Z,0.60
2023-02-26T07:05:24.202Z,0.60
2023-02-26T07:07:52.142Z,0.60
2023-02-26T07:10:21.493Z,0.60
2023-02-26T07:12:50.981Z,0.60
2023-02-26T07:15:19.100Z,0.60
2023-02-26T07:17:47.287Z,0.60
2023-02-26T07:20:15.365Z,0.60
2023-02-26T07:22:43.369Z,0.60
2023-02-26T07:25:12.253Z,0.60
2023-02-26T07:27:43.371Z,0.60
2023-02-26T07:30:14.526Z,0.70
2023-02-26T07:32:42.569Z,0.60
2023-02-26T07:35:11.706Z,0.60
2023-02-26T07:37:39.727Z,0.60
2023-02-26T07:40:08.826Z,0.60
2023-02-26T07:42:36.820Z,0.60
2023-02-26T07:45:05.391Z,0.60
2023-02-26T07:47:34.853Z,0.60
2023-02-26T07:50:02.882Z,0.60
2023-02-26T07:52:30.836Z,0.60
2023-02-26T07:54:58.835Z,0.60
2023-02-26T07:57:26.864Z,0.60
2023-02-26T07:59:54.891Z,0.60
2023-02-26T08:02:23.401Z,0.60
2023-02-26T08:04:52.829Z,0.60
2023-02-26T08:07:20.822Z,0.60
2023-02-26T08:09:48.868Z,0.60
2023-02-26T08:12:16.874Z,0.60
2023-02-26T08:14:44.861Z,0.70
2023-02-26T08:17:12.833Z,0.70
2023-02-26T08:19:40.873Z,0.70
2023-02-26T08:22:10.182Z,0.70
2023-02-26T08:24:39.314Z,0.70
2023-02-26T08:27:07.331Z,0.70
2023-02-26T08:29:35.301Z,0.70
2023-02-26T08:32:03.406Z,0.70
2023-02-26T08:34:31.505Z,0.70
2023-02-26T08:36:59.524Z,0.80
2023-02-26T08:39:32.982Z,0.80
2023-02-26T08:42:00.932Z,0.80
2023-02-26T08:44:28.877Z,0.80
2023-02-26T08:46:56.991Z,0.90
2023-02-26T08:49:24.973Z,0.90
2023-02-26T08:51:52.953Z,1.00
2023-02-26T08:54:21.296Z,1.00
2023-02-26T08:56:50.661Z,1.00
2023-02-26T08:59:18.796Z,1.10
2023-02-26T09:01:46.836Z,1.10
2023-02-26T09:04:14.903Z,1.20
2023-02-26T09:06:43.052Z,1.20
2023-02-26T09:09:11.310Z,1.30
2023-02-26T09:11:39.287Z,1.40
2023-02-26T09:14:08.633Z,1.40
2023-02-26T09:16:36.965Z,1.50
2023-02-26T09:19:05.574Z,1.50
2023-02-26T09:21:35.778Z,1.60
2023-02-26T09:24:03.946Z,1.70
2023-02-26T09:26:32.093Z,1.70
2023-02-26T09:29:00.112Z,1.80
2023-02-26T09:31:29.576Z,1.90
2023-02-26T09:33:57.556Z,1.90
2023-02-26T09:36:25.902Z,2.00
2023-02-26T09:38:54.744Z,2.10
2023-02-26T09:41:27.584Z,2.10
2023-02-26T09:44:08.757Z,2.20
2023-02-26T09:46:47.098Z,2.30
2023-02-26T09:49:29.996Z,2.40
2023-02-26T09:52:02.725Z,2.50
2023-02-26T09:54:44.506Z,2.60
2023-02-26T09:57:21.354Z,2.70
2023-02-26T09:59:49.533Z,2.80
2023-02-26T10:02:26.025Z,2.90
2023-02-26T10:05:04.257Z,2.90
2023-02-26T10:07:41.935Z,3.00
2023-02-26T10:10:21.082Z,3.00
2023-02-26T10:12:52.377Z,3.10
2023-02-26T10:15:24.722Z,3.20
2023-02-26T10:18:07.170Z,3.20
2023-02-26T10:20:41.426Z,3.30
2023-02-26T10:23:21.047Z,3.30
2023-02-26T10:25:53.052Z,3.40
2023-02-26T10:28:43.541Z,3.40
2023-02-26T10:31:19.660Z,3.50
2023-02-26T10:33:58.416Z,3.50
2023-02-26T10:36:30.796Z,3.60
2023-02-26T10:39:04.858Z,3.70
2023-02-26T10:41:37.801Z,3.70
2023-02-26T10:44:15.772Z,3.80
2023-02-26T10:46:49.373Z,3.80
2023-02-26T10:49:48.197Z,3.90
2023-02-26T10:52:18.266Z,3.90
2023-02-26T10:54:52.394Z,4.00
2023-02-26T10:57:25.210Z,4.00
2023-02-26T10:59:53.309Z,4.10
2023-02-26T11:02:35.976Z,4.10
2023-02-26T11:05:08.141Z,4.20
2023-02-26T11:07:38.848Z,4.20
2023-02-26T11:10:16.828Z,4.30
2023-02-26T11:12:45.439Z,4.30
2023-02-26T11:15:18.782Z,4.40
2023-02-26T11:17:48.633Z,4.40
2023-02-26T11:20:25.348Z,4.50
2023-02-26T11:22:57.356Z,4.50
2023-02-26T11:25:28.511Z,4.60
2023-02-26T11:28:01.424Z,4.60
2023-02-26T11:30:32.775Z,4.70
2023-02-26T11:33:08.540Z,4.70
2023-02-26T11:35:38.171Z,4.80
2023-02-26T11:38:06.330Z,4.80
2023-02-26T11:40:40.119Z,4.90
2023-02-26T11:43:13.961Z,4.90
2023-02-26T11:45:45.754Z,5.00
2023-02-26T11:48:17.141Z,5.00
2023-02-26T11:50:50.211Z,5.00
2023-02-26T11:53:20.229Z,5.10
2023-02-26T11:55:52.716Z,5.10
2023-02-26T11:58:22.726Z,5.20
2023-02-26T12:00:53.837Z,5.20
2023-02-26T12:03:23.993Z,5.20
2023-02-26T12:05:54.305Z,5.30
2023-02-26T12:08:28.714Z,5.30
2023-02-26T12:11:09.440Z,5.30
2023-02-26T12:13:44.279Z,5.40
2023-02-26T12:16:19.608Z,5.40
2023-02-26T12:19:01.701Z,5.50
2023-02-26T12:21:53.308Z,5.50
2023-02-26T12:24:36.973Z,5.50
2023-02-26T12:27:13.388Z,5.60
2023-02-26T12:30:04.424Z,5.60
2023-02-26T12:32:42.036Z,5.70
2023-02-26T12:35:48.219Z,5.70
2023-02-26T12:38:29.689Z,5.80
2023-02-26T12:41:40.534Z,5.90
2023-02-26T12:44:22.743Z,6.00
2023-02-26T12:47:06.295Z,6.10
2023-02-26T12:50:07.118Z,6.10
2023-02-26T12:52:52.518Z,6.10
2023-02-26T12:55:30.280Z,6.10
2023-02-26T12:58:42.928Z,6.10
2023-02-26T13:01:36.884Z,6.20
2023-02-26T13:04:42.933Z,6.20
2023-02-26T13:07:42.249Z,6.30
2023-02-26T13:10:21.229Z,6.30
2023-02-26T13:12:57.623Z,6.40
2023-02-26T13:15:51.164Z,6.40
2023-02-26T13:18:26.940Z,6.40
2023-02-26T13:21:00.475Z,6.50
2023-02-26T13:23:34.491Z,6.50
2023-02-26T13:26:05.736Z,6.60
2023-02-26T13:28:41.783Z,6.60
2023-02-26T13:31:14.701Z,6.60
2023-02-26T13:33:43.988Z,6.70
2023-02-26T13:36:12.637Z,6.70
2023-02-26T13:38:52.956Z,6.70
2023-02-26T13:41:26.776Z,6.60
2023-02-26T13:44:14.054Z,6.70
2023-02-26T13:46:54.799Z,6.60
2023-02-26T13:49:28.308Z,6.60
2023-02-26T13:51:56.550Z,6.70
2023-02-26T13:54:36.668Z,6.70
2023-02-26T13:57:22.043Z,6.80
2023-02-26T13:59:56.296Z,6.90
2023-02-26T14:02:52.419Z,7.00
2023-02-26T14:06:01.920Z,7.10
2023-02-26T14:08:51.460Z,7.20
2023-02-26T14:11:47.629Z,7.30
2023-02-26T14:14:24.648Z,7.40
2023-02-26T14:17:18.705Z,7.40
2023-02-26T14:20:17.619Z,7.40
2023-02-26T14:22:49.801Z,7.40
2023-02-26T14:25:23.573Z,7.30
2023-02-26T14:27:51.624Z,7.30
2023-02-26T14:30:29.080Z,7.20
2023-02-26T14:33:10.891Z,7.20
2023-02-26T14:35:44.349Z,7.20
2023-02-26T14:38:17.948Z,7.20
2023-02-26T14:40:49.302Z,7.20
2023-02-26T14:43:22.305Z,7.10
2023-02-26T14:45:51.791Z,7.20
2023-02-26T14:48:29.384Z,7.10
2023-02-26T14:51:09.949Z,7.10
2023-02-26T14:53:59.831Z,7.10
2023-02-26T14:56:36.849Z,7.10
2023-02-26T14:59:24.249Z,7.10
2023-02-26T15:02:03.862Z,7.00
2023-02-26T15:04:55.444Z,7.00
2023-02-26T15:07:35.922Z,7.00
2023-02-26T15:10:20.864Z,6.90
2023-02-26T15:13:23.683Z,7.00
2023-02-26T15:15:57.519Z,7.00
2023-02-26T15:18:53.402Z,6.90
2023-02-26T15:21:32.384Z,6.90
2023-02-26T15:24:01.240Z,6.90
2023-02-26T15:26:31.982Z,6.90
2023-02-26T15:29:03.487Z,6.90
2023-02-26T15:31:35.399Z,7.00
2023-02-26T15:34:04.371Z,7.00
2023-02-26T15:36:33.947Z,6.90
2023-02-26T15:39:03.817Z,6.90
2023-02-26T15:41:33.825Z,6.90
2023-02-26T15:44:05.027Z,7.00
2023-02-26T15:46:37.127Z,6.90
2023-02-26T15:49:18.071Z,7.00
2023-02-26T15:51:48.077Z,7.00
2023-02-26T15:54:19.690Z,7.00
2023-02-26T15:56:48.775Z,6.90
2023-02-26T15:59:20.492Z,6.90
2023-02-26T16:01:50.568Z,6.90
2023-02-26T16:04:20.377Z,6.90
2023-02-26T16:06:51.352Z,6.90
2023-02-26T16:09:22.087Z,6.90
2023-02-26T16:11:50.886Z,6.80
2023-02-26T16:14:22.650Z,6.80
2023-02-26T16:16:52.556Z,6.80
2023-02-26T16:19:24.555Z,6.80
2023-02-26T16:21:56.210Z,6.70
2023-02-26T16:24:24.721Z,6.70
2023-02-26T16:26:56.127Z,6.60
2023-02-26T16:29:27.037Z,6.60
2023-02-26T16:31:57.845Z,6.60
2023-02-26T16:34:36.233Z,6.60
2023-02-26T16:37:21.752Z,6.60
2023-02-26T16:39:55.807Z,6.50
2023-02-26T16:42:36.953Z,6.50
2023-02-26T16:45:23.583Z,6.50
2023-02-26T16:47:54.313Z,6.40
2023-02-26T16:50:26.482Z,6.40
2023-02-26T16:53:01.160Z,6.40
2023-02-26T16:55:32.157Z,6.30
2023-02-26T16:58:02.718Z,6.30
2023-02-26T17:00:31.866Z,6.20
2023-02-26T17:03:06.933Z,6.20
2023-02-26T17:05:37.065Z,6.20
2023-02-26T17:08:17.685Z,6.10
2023-02-26T17:10:48.199Z,6.10
2023-02-26T17:13:18.233Z,6.00
2023-02-26T17:15:49.011Z,6.00
2023-02-26T17:18:17.611Z,6.00
2023-02-26T17:20:46.394Z,5.90
2023-02-26T17:23:18.304Z,5.90
2023-02-26T17:25:50.375Z,5.80
2023-02-26T17:28:25.653Z,5.80
2023-02-26T17:30:54.268Z,5.80
2023-02-26T17:33:23.057Z,5.70
2023-02-26T17:35:59.956Z,5.70
2023-02-26T17:38:29.811Z,5.60
2023-02-26T17:40:58.405Z,5.60
2023-02-26T17:43:27.081Z,5.60
2023-02-26T17:45:55.414Z,5.50
2023-02-26T17:48:23.962Z,5.50
2023-02-26T17:50:53.932Z,5.40
2023-02-26T17:53:23.868Z,5.40
2023-02-26T17:55:55.966Z,5.30
2023-02-26T17:58:28.007Z,5.30
2023-02-26T18:00:56.230Z,5.20
2023-02-26T18:03:24.305Z,5.20
2023-02-26T18:05:54.598Z,5.20
2023-02-26T18:08:24.414Z,5.10
2023-02-26T18:10:54.449Z,5.10
2023-02-26T18:13:22.898Z,5.10
2023-02-26T18:15:52.179Z,5.00
2023-02-26T18:18:22.184Z,4.90
2023-02-26T18:20:50.248Z,4.90
2023-02-26T18:23:18.546Z,4.90
2023-02-26T18:25:48.750Z,4.80
2023-02-26T18:28:20.643Z,4.80
2023-02-26T18:30:49.333Z,4.70
2023-02-26T18:33:17.910Z,4.70
2023-02-26T18:35:47.615Z,4.70
2023-02-26T18:38:17.267Z,4.60
2023-02-26T18:40:46.179Z,4.60
2023-02-26T18:43:14.251Z,4.60
2023-02-26T18:45:45.408Z,4.50
2023-02-26T18:48:15.954Z,4.50
2023-02-26T18:50:44.504Z,4.50
2023-02-26T18:53:12.780Z,4.40
2023-02-26T18:55:40.854Z,4.40
2023-02-26T18:58:08.958Z,4.30
2023-02-26T19:00:36.980Z,4.30
2023-02-26T19:03:06.399Z,4.30
2023-02-26T19:05:34.379Z,4.30
2023-02-26T19:08:03.261Z,4.20
2023-02-26T19:10:31.702Z,4.20
2023-02-26T19:12:59.712Z,4.20
2023-02-26T19:15:27.981Z,4.20
2023-02-26T19:17:56.166Z,4.10
2023-02-26T19:20:25.481Z,4.10
2023-02-26T19:22:53.634Z,4.10
2023-02-26T19:25:23.997Z,4.00
2023-02-26T19:27:53.515Z,4.00
2023-02-26T19:30:21.871Z,4.00
2023-02-26T19:32:49.964Z,3.90
2023-02-26T19:35:19.560Z,3.90
2023-02-26T19:37:49.395Z,3.90
2023-02-26T19:40:19.324Z,3.90
2023-02-26T19:42:47.766Z,3.90
2023-02-26T19:45:17.144Z,3.80
2023-02-26T19:47:45.384Z,3.80
2023-02-26T19:50:15.062Z,3.80
2023-02-26T19:52:44.367Z,3.80
2023-02-26T19:55:14.672Z,3.80
2023-02-26T19:57:52.055Z,3.70
2023-02-26T20:00:20.534Z,3.70
2023-02-26T20:02:48.562Z,3.70
2023-02-26T20:05:18.096Z,3.70
2023-02-26T20:07:48.028Z,3.70
2023-02-26T20:10:16.781Z,3.70
2023-02-26T20:12:46.043Z,3.70
2023-02-26T20:15:15.440Z,3.60
2023-02-26T20:17:43.448Z,3.60
2023-02-26T20:20:12.550Z,3.70
2023-02-26T20:22:40.517Z,3.60
2023-02-26T20:25:09.426Z,3.60
2023-02-26T20:27:37.441Z,3.60
2023-02-26T20:30:06.814Z,3.60
2023-02-26T20:32:37.486Z,3.50
2023-02-26T20:35:06.199Z,3.50
2023-02-26T20:37:34.188Z,3.50
2023-02-26T20:40:02.224Z,3.50
2023-02-26T20:42:31.152Z,3.50
2023-02-26T20:44:59.119Z,3.50
2023-02-26T20:47:27.393Z,3.50
2023-02-26T20:49:56.808Z,3.50
2023-02-26T20:52:24.938Z,3.50
2023-02-26T20:54:52.900Z,3.50
2023-02-26T20:57:21.110Z,3.40
2023-02-26T20:59:49.036Z,3.40
2023-02-26T21:02:20.626Z,3.40
2023-02-26T21:04:50.928Z,3.40
2023-02-26T21:07:22.653Z,3.40
2023-02-26T21:09:51.848Z,3.40
2023-02-26T21:12:19.997Z,3.40
2023-02-26T21:14:50.498Z,3.40
2023-02-26T21:17:18.418Z,3.40
2023-02-26T21:19:47.128Z,3.40
2023-02-26T21:22:15.345Z,3.40
2023-02-26T21:24:45.191Z,3.30
2023-02-26T21:27:13.876Z,3.40
2023-02-26T21:29:41.833Z,3.30
2023-02-26T21:32:09.940Z,3.30
2023-02-26T21:34:38.016Z,3.30
2023-02-26T21:37:08.037Z,3.30
2023-02-26T21:39:38.016Z,3.30
2023-02-26T21:42:08.835Z,3.30
2023-02-26T21:44:37.057Z,3.20
2023-02-26T21:47:05.395Z,3.20
2023-02-26T21:49:33.579Z,3.20
2023-02-26T21:52:03.038Z,3.20
2023-02-26T21:54:31.375Z,3.20
2023-02-26T21:56:59.617Z,3.20
2023-02-26T21:59:28.930Z,3.20
2023-02-26T22:01:57.347Z,3.20
2023-02-26T22:04:25.419Z,3.10
2023-02-26T22:06:53.520Z,3.10
2023-02-26T22:09:21.958Z,3.10
2023-02-26T22:11:50.039Z,3.10
2023-02-26T22:14:18.134Z,3.10
2023-02-26T22:16:47.566Z,3.10
2023-02-26T22:19:15.547Z,3.10
2023-02-26T22:21:43.470Z,3.00
2023-02-26T22:24:11.888Z,3.00
2023-02-26T22:26:39.985Z,3.00
2023-02-26T22:29:07.955Z,3.00
2023-02-26T22:31:35.981Z,3.00
2023-02-26T22:34:05.380Z,3.00
2023-02-26T22:36:34.691Z,2.90
2023-02-26T22:39:02.784Z,2.90
2023-02-26T22:41:30.822Z,2.90
2023-02-26T22:43:58.817Z,2.90
2023-02-26T22:46:28.404Z,2.90
2023-02-26T22:48:56.849Z,2.90
2023-02-26T22:51:28.187Z,2.80
2023-02-26T22:53:56.866Z,2.80
2023-02-26T22:56:25.278Z,2.80
2023-02-26T22:58:53.328Z,2.80
2023-02-26T23:01:21.460Z,2.80
2023-02-26T23:03:49.443Z,2.80
2023-02-26T23:06:17.415Z,2.80
2023-02-26T23:08:46.887Z,2.80
2023-02-26T23:11:14.999Z,2.80
2023-02-26T23:13:43.094Z,2.80
2023-02-26T23:16:12.321Z,2.80
2023-02-26T23:18:40.706Z,2.80
2023-02-26T23:21:08.938Z,2.70
2023-02-26T23:23:36.946Z,2.70
2023-02-26T23:26:06.725Z,2.70
2023-02-26T23:28:34.752Z,2.70
2023-02-26T23:31:02.973Z,2.70
2023-02-26T23:33:31.154Z,2.70
2023-02-26T23:35:59.194Z,2.70
2023-02-26T23:38:27.383Z,2.70
2023-02-26T23:40:56.696Z,2.70
2023-02-26T23:43:26.067Z,2.70
2023-02-26T23:45:54.081Z,2.70
2023-02-26T23:48:24.725Z,2.70
2023-02-26T23:50:52.860Z,2.70
2023-02-26T23:53:20.918Z,2.70
2023-02-26T23:55:51.077Z,2.70
2023-02-26T23:58:19.148Z,2.70
